Jawor — C6YH8 — position and weather

sailwx.info

Track history (hours):
 
Tides and Currents Weather Stations Pressure Air Temp Water Temp Dewpoint Dewpoint Depression Visibility Wind Speed Wind Dir Waves Ship Positions

Jawor

Last reported at 2017-Dec-03 02:20 UTC. Time now 2017-Dec-12 21:45 UTC.
Position N 31°24' E 032°21'.
Warning: this ship's position is 9 days out of date.

Length 229 m; draft 13.1 m.

Type: Cargo ship. MMSI: 311034100.

Date/timePositionNaut miles runAvg speedWind from/ knotsBaromVisibWave heightAir tempDewpointWater temp
2017-Dec-03 02:20N 31°24' E 032°21'394 7.7
2017-Nov-30 23:19N 36°15' E 027°01'610.0
2017-Nov-30 22:42N 36°19' E 026°56'210.1
2017-Nov-30 22:30N 36°21' E 026°54'8 9.8
2017-Nov-30 21:41N 36°27' E 026°48'4 9.8
2017-Nov-30 21:19N 36°30' E 026°45'3 9.8
2017-Nov-30 21:00N 36°32' E 026°42'5 9.9
2017-Nov-30 20:29N 36°36' E 026°38'510.2
2017-Nov-30 20:00N 36°39' E 026°34'510.3
2017-Nov-30 19:30N 36°43' E 026°30'510.2
2017-Nov-30 19:00N 36°47' E 026°25'510.2
2017-Nov-30 18:30N 36°51' E 026°21'510.3
2017-Nov-30 18:00N 36°55' E 026°17'510.1
2017-Nov-30 17:30N 36°59' E 026°13'510.4
2017-Nov-30 17:00N 37°03' E 026°10'510.1
2017-Nov-30 16:30N 37°08' E 026°07'5 9.9
2017-Nov-30 16:00N 37°12' E 026°04'5 9.8
2017-Nov-30 15:30N 37°16' E 026°01'5 9.9
2017-Nov-30 15:00N 37°21' E 025°58'510.0
2017-Nov-30 14:30N 37°25' E 025°55'5 9.4
2017-Nov-30 14:00N 37°29' E 025°53'510.0
2017-Nov-30 13:31N 37°34' E 025°52'15 8.7
2017-Nov-30 11:45N 37°50' E 025°51'2 9.1
2017-Nov-30 11:29N 37°52' E 025°50'368 7.1
2017-Nov-28 07:45N 43°33' E 028°51'311.1
2017-Nov-28 07:30N 43°36' E 028°51'511.0
2017-Nov-28 07:00N 43°42' E 028°50'511.0
2017-Nov-28 06:30N 43°47' E 028°49'510.9
2017-Nov-28 06:01N 43°52' E 028°49'510.3
2017-Nov-28 05:30N 43°58' E 028°48'9 9.1
2017-Nov-28 04:31N 44°06' E 028°42'2 3.7
2017-Nov-28 04:01N 44°06' E 028°40'0 0.3
2017-Nov-28 03:28N 44°06' E 028°40'0 0.0
2017-Nov-28 02:58N 44°06' E 028°40'0 0.0
2017-Nov-28 02:28N 44°06' E 028°40'0 0.0
2017-Nov-28 01:58N 44°06' E 028°40'0 0.0
2017-Nov-28 01:25N 44°06' E 028°40'0 0.0
2017-Nov-28 00:58N 44°06' E 028°40'0 0.0
2017-Nov-28 00:28N 44°06' E 028°40'0 0.0
2017-Nov-27 23:55N 44°06' E 028°40'0 0.0
2017-Nov-27 23:28N 44°06' E 028°40'0 0.0
2017-Nov-27 22:58N 44°06' E 028°40'0 0.0
2017-Nov-27 22:28N 44°06' E 028°40'0 0.0
2017-Nov-27 21:58N 44°06' E 028°40'0 0.0
2017-Nov-27 21:28N 44°06' E 028°40'0 0.0
2017-Nov-27 20:58N 44°06' E 028°40'0 0.0
2017-Nov-27 20:28N 44°06' E 028°40'0 0.0
2017-Nov-27 19:58N 44°06' E 028°40'0 0.0
2017-Nov-27 19:28N 44°06' E 028°40'0 0.0
2017-Nov-27 18:58N 44°06' E 028°40'0 0.0
2017-Nov-27 18:28N 44°06' E 028°40'0 0.0
2017-Nov-27 17:58N 44°06' E 028°40'0 0.0
2017-Nov-27 17:28N 44°06' E 028°40'0 0.0
2017-Nov-27 16:58N 44°06' E 028°40'0 0.0
2017-Nov-27 16:28N 44°06' E 028°40'0 0.0
2017-Nov-27 15:58N 44°06' E 028°40'0 0.0
2017-Nov-27 15:28N 44°06' E 028°40'0 0.0
2017-Nov-27 14:58N 44°06' E 028°40'0 0.0
2017-Nov-27 14:28N 44°06' E 028°40'0 0.0
2017-Nov-27 13:58N 44°06' E 028°40'0 0.0
2017-Nov-27 13:28N 44°06' E 028°40'0 0.0
2017-Nov-27 12:58N 44°06' E 028°40'0 0.0
2017-Nov-27 12:28N 44°06' E 028°40'0 0.0
2017-Nov-27 11:58N 44°06' E 028°40'0 0.0
2017-Nov-27 11:28N 44°06' E 028°40'0 0.0
2017-Nov-27 10:58N 44°06' E 028°40'0 0.0
2017-Nov-27 10:28N 44°06' E 028°40'0 0.0
2017-Nov-27 09:58N 44°06' E 028°40'0 0.0
2017-Nov-27 09:28N 44°06' E 028°40'0 0.0
2017-Nov-27 08:58N 44°06' E 028°40'0 0.0
2017-Nov-27 08:28N 44°06' E 028°40'0 0.0
2017-Nov-27 07:58N 44°06' E 028°40'0 0.0
2017-Nov-27 07:28N 44°06' E 028°40'0 0.0
2017-Nov-27 06:58N 44°06' E 028°40'0 0.0
2017-Nov-27 06:28N 44°06' E 028°40'0 0.0
2017-Nov-27 05:58N 44°06' E 028°40'0 0.0
2017-Nov-27 05:28N 44°06' E 028°40'0 0.0
2017-Nov-27 04:58N 44°06' E 028°40'0 0.0
2017-Nov-27 04:28N 44°06' E 028°40'0 0.0
2017-Nov-27 03:58N 44°06' E 028°40'0 0.0
2017-Nov-27 03:28N 44°06' E 028°40'0 0.0
2017-Nov-27 02:58N 44°06' E 028°40'0 0.0
2017-Nov-27 02:28N 44°06' E 028°40'0 0.0
2017-Nov-27 01:58N 44°06' E 028°40'0 0.0
2017-Nov-27 01:28N 44°06' E 028°40'0 0.0
2017-Nov-27 00:58N 44°06' E 028°40'0 0.0
2017-Nov-27 00:28N 44°06' E 028°40'0 0.0
2017-Nov-26 23:58N 44°06' E 028°40'0 0.0
2017-Nov-26 23:28N 44°06' E 028°40'0 0.0
2017-Nov-26 22:58N 44°06' E 028°40'0 0.0
2017-Nov-26 22:28N 44°06' E 028°40'0 0.0
2017-Nov-26 21:58N 44°06' E 028°40'0 0.0
2017-Nov-26 21:28N 44°06' E 028°40'0 0.0
2017-Nov-26 20:58N 44°06' E 028°40'0 0.0
2017-Nov-26 20:28N 44°06' E 028°40'0 0.0
2017-Nov-26 19:58N 44°06' E 028°40'0 0.0
2017-Nov-26 19:28N 44°06' E 028°40'0 0.0
2017-Nov-26 18:58N 44°06' E 028°40'0 0.0
2017-Nov-26 18:28N 44°06' E 028°40'0 0.0
2017-Nov-26 17:55N 44°06' E 028°40'0 0.0
2017-Nov-26 17:28N 44°06' E 028°40'0 0.0
2017-Nov-26 16:58N 44°06' E 028°40'0 0.0
2017-Nov-26 16:28N 44°06' E 028°40'0 0.0
2017-Nov-26 15:58N 44°06' E 028°40'0 0.0
2017-Nov-26 15:28N 44°06' E 028°40'0 0.0
2017-Nov-26 14:58N 44°06' E 028°40'0 0.0
2017-Nov-26 14:28N 44°06' E 028°40'0 0.0
2017-Nov-26 13:58N 44°06' E 028°40'0 0.0
2017-Nov-26 13:28N 44°06' E 028°40'0 0.0
2017-Nov-26 12:58N 44°06' E 028°40'0 0.0
2017-Nov-26 12:28N 44°06' E 028°40'0 0.0
2017-Nov-26 12:01N 44°06' E 028°40'0 0.0
2017-Nov-26 11:28N 44°06' E 028°40'0 0.0
2017-Nov-26 10:58N 44°06' E 028°40'0 0.0
2017-Nov-26 10:28N 44°06' E 028°40'0 0.0
2017-Nov-26 09:58N 44°06' E 028°40'0 0.0
2017-Nov-26 09:28N 44°06' E 028°40'0 0.0
2017-Nov-26 08:58N 44°06' E 028°40'0 0.0
2017-Nov-26 08:28N 44°06' E 028°40'0 0.0
2017-Nov-26 08:01N 44°06' E 028°40'0 0.0
2017-Nov-26 07:28N 44°06' E 028°40'0 0.0
2017-Nov-26 06:58N 44°06' E 028°40'0 0.0
2017-Nov-26 06:28N 44°06' E 028°40'0 0.0
2017-Nov-26 06:01N 44°06' E 028°40'0 0.0
2017-Nov-26 05:28N 44°06' E 028°40'0 0.0
2017-Nov-26 04:58N 44°06' E 028°40'0 0.0
2017-Nov-26 04:28N 44°06' E 028°40'0 0.0
2017-Nov-26 03:58N 44°06' E 028°40'0 0.0
2017-Nov-26 03:31N 44°06' E 028°40'0 0.0
2017-Nov-26 02:58N 44°06' E 028°40'0 0.0
2017-Nov-26 02:28N 44°06' E 028°40'0 0.0
2017-Nov-26 02:01N 44°06' E 028°40'0 0.0
2017-Nov-26 01:30N 44°06' E 028°40'0 0.0
2017-Nov-26 00:58N 44°06' E 028°40'0 0.0
2017-Nov-26 00:28N 44°06' E 028°40'0 0.0
2017-Nov-25 23:58N 44°06' E 028°40'0 0.0
2017-Nov-25 23:28N 44°06' E 028°40'0 0.0
2017-Nov-25 22:58N 44°06' E 028°40'0 0.0
2017-Nov-25 22:31N 44°06' E 028°40'0 0.0
2017-Nov-25 22:01N 44°06' E 028°40'0 0.0
2017-Nov-25 21:31N 44°06' E 028°40'0 0.0
2017-Nov-25 20:58N 44°06' E 028°40'0 0.0
2017-Nov-25 20:31N 44°06' E 028°40'0 0.0
2017-Nov-25 20:01N 44°06' E 028°40'0 0.0
2017-Nov-25 19:28N 44°06' E 028°40'0 0.0
2017-Nov-25 18:58N 44°06' E 028°40'0 0.0
2017-Nov-25 18:28N 44°06' E 028°40'0 0.0
2017-Nov-25 18:01N 44°06' E 028°40'0 0.0
2017-Nov-25 17:28N 44°06' E 028°40'0 0.0
2017-Nov-25 17:01N 44°06' E 028°40'0 0.0
2017-Nov-25 16:31N 44°06' E 028°40'0 0.0
2017-Nov-25 16:01N 44°06' E 028°40'0 0.0
2017-Nov-25 15:28N 44°06' E 028°40'0 0.0
2017-Nov-25 15:00N 44°06' E 028°40'0 0.0
2017-Nov-25 14:31N 44°06' E 028°40'0 0.0
2017-Nov-25 13:58N 44°06' E 028°40'0 0.0
2017-Nov-25 13:31N 44°06' E 028°40'0 0.0
2017-Nov-25 13:00N 44°06' E 028°40'0 0.0
2017-Nov-25 12:30N 44°06' E 028°40'0 0.0
2017-Nov-25 12:00N 44°06' E 028°40'0 0.0
2017-Nov-25 11:31N 44°06' E 028°40'0 0.0
2017-Nov-25 11:00N 44°06' E 028°40'0 0.0
2017-Nov-25 10:30N 44°06' E 028°40'0 0.0
2017-Nov-25 10:01N 44°06' E 028°40'0 0.0
2017-Nov-25 09:30N 44°06' E 028°40'0 0.0
2017-Nov-25 09:00N 44°06' E 028°40'0 0.0
2017-Nov-25 08:31N 44°06' E 028°40'0 0.0
2017-Nov-25 08:01N 44°06' E 028°40'0 0.0
2017-Nov-25 07:31N 44°06' E 028°40'0 0.0
2017-Nov-25 07:00N 44°06' E 028°40'0 0.0
2017-Nov-25 06:30N 44°06' E 028°40'0 0.0
2017-Nov-25 06:00N 44°06' E 028°40'0 0.0
2017-Nov-25 05:31N 44°06' E 028°40'0 0.0
2017-Nov-25 05:00N 44°06' E 028°40'0 0.0
2017-Nov-25 04:30N 44°06' E 028°40'0 0.0
2017-Nov-25 04:00N 44°06' E 028°40'0 0.0
2017-Nov-25 03:30N 44°06' E 028°40'0 0.0
2017-Nov-25 03:00N 44°06' E 028°40'0 0.0
2017-Nov-25 02:30N 44°06' E 028°40'0 0.0
2017-Nov-25 02:00N 44°06' E 028°40'0 0.0
2017-Nov-25 01:30N 44°06' E 028°40'0 0.0
2017-Nov-25 01:00N 44°06' E 028°40'0 0.0
2017-Nov-25 00:30N 44°06' E 028°40'0 0.0
2017-Nov-25 00:00N 44°06' E 028°40'0 0.0
2017-Nov-24 23:30N 44°06' E 028°40'0 0.0
2017-Nov-24 23:00N 44°06' E 028°40'0 0.0
2017-Nov-24 22:30N 44°06' E 028°40'0 0.0
2017-Nov-24 22:00N 44°06' E 028°40'0 0.0
2017-Nov-24 21:31N 44°06' E 028°40'0 0.0
2017-Nov-24 21:01N 44°06' E 028°40'0 0.0
2017-Nov-24 20:30N 44°06' E 028°40'0 0.0
2017-Nov-24 20:00N 44°06' E 028°40'0 0.0
2017-Nov-24 19:30N 44°06' E 028°40'0 0.0
2017-Nov-24 19:00N 44°06' E 028°40'0 0.0
2017-Nov-24 18:30N 44°06' E 028°40'0 0.0
2017-Nov-24 18:00N 44°06' E 028°40'0 0.0
2017-Nov-24 17:30N 44°06' E 028°40'0 0.0
2017-Nov-24 17:00N 44°06' E 028°40'0 0.0
2017-Nov-24 16:30N 44°06' E 028°40'0 0.0
2017-Nov-24 16:00N 44°06' E 028°40'0 0.0
2017-Nov-24 15:30N 44°06' E 028°40'0 0.0
2017-Nov-24 15:00N 44°06' E 028°40'0 0.0
2017-Nov-24 14:30N 44°06' E 028°40'0 0.0
2017-Nov-24 14:00N 44°06' E 028°40'0 0.0
2017-Nov-24 13:30N 44°06' E 028°40'0 0.0
2017-Nov-24 13:00N 44°06' E 028°40'0 0.0
2017-Nov-24 12:30N 44°06' E 028°40'0 0.0
2017-Nov-24 12:00N 44°06' E 028°40'0 0.0
2017-Nov-24 11:30N 44°06' E 028°40'0 0.0
2017-Nov-24 11:00N 44°06' E 028°40'0 0.0
2017-Nov-24 10:30N 44°06' E 028°40'0 0.0
2017-Nov-24 10:00N 44°06' E 028°40'0 0.0
2017-Nov-24 09:30N 44°06' E 028°40'0 0.0
2017-Nov-24 09:00N 44°06' E 028°40'0 0.0
2017-Nov-24 08:30N 44°06' E 028°40'0 0.0
2017-Nov-24 08:00N 44°06' E 028°40'0 0.0
2017-Nov-24 07:30N 44°06' E 028°40'0 0.0
2017-Nov-24 07:00N 44°06' E 028°40'0 0.0
2017-Nov-24 06:30N 44°06' E 028°40'0 0.0
2017-Nov-24 06:00N 44°06' E 028°40'0 0.0
2017-Nov-24 05:30N 44°06' E 028°40'0 0.0
2017-Nov-24 05:00N 44°06' E 028°40'0 0.0
2017-Nov-24 04:30N 44°06' E 028°40'0 0.0
2017-Nov-24 04:00N 44°06' E 028°40'0 0.0
2017-Nov-24 03:30N 44°06' E 028°40'0 0.0
2017-Nov-24 03:00N 44°06' E 028°40'0 0.0
2017-Nov-24 02:30N 44°06' E 028°40'0 0.0
2017-Nov-24 02:00N 44°06' E 028°40'0 0.0
2017-Nov-24 01:30N 44°06' E 028°40'0 0.0
2017-Nov-24 01:00N 44°06' E 028°40'0 0.0
2017-Nov-24 00:30N 44°06' E 028°40'0 0.0
2017-Nov-24 00:00N 44°06' E 028°40'0 0.0
2017-Nov-23 23:30N 44°06' E 028°40'0 0.0
2017-Nov-23 23:00N 44°06' E 028°40'0 0.0
2017-Nov-23 22:30N 44°06' E 028°40'0 0.0
2017-Nov-23 22:00N 44°06' E 028°40'0 0.0
2017-Nov-23 21:30N 44°06' E 028°40'0 0.0
2017-Nov-23 21:00N 44°06' E 028°40'0 0.0
2017-Nov-23 20:30N 44°06' E 028°40'0 0.0
2017-Nov-23 20:00N 44°06' E 028°40'0 0.0
2017-Nov-23 19:30N 44°06' E 028°40'0 0.0
2017-Nov-23 19:00N 44°06' E 028°40'0 0.0
2017-Nov-23 18:27N 44°06' E 028°40'0 0.0
2017-Nov-23 18:00N 44°06' E 028°40'0 0.0
2017-Nov-23 17:30N 44°06' E 028°40'0 0.0
2017-Nov-23 17:00N 44°06' E 028°40'0 0.0
2017-Nov-23 16:30N 44°06' E 028°40'0 0.0
2017-Nov-23 16:00N 44°06' E 028°40'0 0.0
2017-Nov-23 15:30N 44°06' E 028°40'0 0.0
2017-Nov-23 15:00N 44°06' E 028°40'0 0.0
2017-Nov-23 14:24N 44°06' E 028°40'0 0.0
2017-Nov-23 14:00N 44°06' E 028°40'0 0.0
2017-Nov-23 13:30N 44°06' E 028°40'0 0.0
2017-Nov-23 13:00N 44°06' E 028°40'0 0.0
2017-Nov-23 12:30N 44°06' E 028°40'0 0.0
2017-Nov-23 12:00N 44°06' E 028°40'0 0.0
2017-Nov-23 11:30N 44°06' E 028°40'0 0.0
2017-Nov-23 11:00N 44°06' E 028°40'0 0.0
2017-Nov-23 10:30N 44°06' E 028°40'0 0.0
2017-Nov-23 10:00N 44°06' E 028°40'0 0.0
2017-Nov-23 09:30N 44°06' E 028°40'0 0.0
2017-Nov-23 09:00N 44°06' E 028°40'0 0.0
2017-Nov-23 08:30N 44°06' E 028°40'0 0.0
2017-Nov-23 08:00N 44°06' E 028°40'0 0.0
2017-Nov-23 07:30N 44°06' E 028°40'0 0.0
2017-Nov-23 07:00N 44°06' E 028°40'0 0.0
2017-Nov-23 06:30N 44°06' E 028°40'0 0.0
2017-Nov-23 06:00N 44°06' E 028°40'0 0.0
2017-Nov-23 05:30N 44°06' E 028°40'0 0.0
2017-Nov-23 05:00N 44°06' E 028°40'0 0.0
2017-Nov-23 04:30N 44°06' E 028°40'0 0.0
2017-Nov-23 04:00N 44°06' E 028°40'0 0.0
2017-Nov-23 03:30N 44°06' E 028°40'0 0.0
2017-Nov-23 03:00N 44°06' E 028°40'0 0.0
2017-Nov-23 02:30N 44°06' E 028°40'  
Track history (hours):
 
Tides and Currents Weather Stations Pressure Air Temp Water Temp Dewpoint Dewpoint Depression Visibility Wind Speed Wind Dir Waves Ship Positions

Jawor

Last reported at 2017-Dec-03 02:20 UTC. Time now 2017-Dec-12 21:45 UTC.
Position N 31°24' E 032°21'.
Warning: this ship's position is 9 days out of date.

Length 229 m; draft 13.1 m.

Type: Cargo ship. MMSI: 311034100.

Date/timePositionNaut miles runAvg speedWind from/ knotsBaromVisibWave heightAir tempDewpointWater temp
2017-Dec-03 02:20N 31°24' E 032°21'394 7.7
2017-Nov-30 23:19N 36°15' E 027°01'610.0
2017-Nov-30 22:42N 36°19' E 026°56'210.1
2017-Nov-30 22:30N 36°21' E 026°54'8 9.8
2017-Nov-30 21:41N 36°27' E 026°48'4 9.8
2017-Nov-30 21:19N 36°30' E 026°45'3 9.8
2017-Nov-30 21:00N 36°32' E 026°42'5 9.9
2017-Nov-30 20:29N 36°36' E 026°38'510.2
2017-Nov-30 20:00N 36°39' E 026°34'510.3
2017-Nov-30 19:30N 36°43' E 026°30'510.2
2017-Nov-30 19:00N 36°47' E 026°25'510.2
2017-Nov-30 18:30N 36°51' E 026°21'510.3
2017-Nov-30 18:00N 36°55' E 026°17'510.1
2017-Nov-30 17:30N 36°59' E 026°13'510.4
2017-Nov-30 17:00N 37°03' E 026°10'510.1
2017-Nov-30 16:30N 37°08' E 026°07'5 9.9
2017-Nov-30 16:00N 37°12' E 026°04'5 9.8
2017-Nov-30 15:30N 37°16' E 026°01'5 9.9
2017-Nov-30 15:00N 37°21' E 025°58'510.0
2017-Nov-30 14:30N 37°25' E 025°55'5 9.4
2017-Nov-30 14:00N 37°29' E 025°53'510.0
2017-Nov-30 13:31N 37°34' E 025°52'15 8.7
2017-Nov-30 11:45N 37°50' E 025°51'2 9.1
2017-Nov-30 11:29N 37°52' E 025°50'368 7.1
2017-Nov-28 07:45N 43°33' E 028°51'311.1
2017-Nov-28 07:30N 43°36' E 028°51'511.0
2017-Nov-28 07:00N 43°42' E 028°50'511.0
2017-Nov-28 06:30N 43°47' E 028°49'510.9
2017-Nov-28 06:01N 43°52' E 028°49'510.3
2017-Nov-28 05:30N 43°58' E 028°48'9 9.1
2017-Nov-28 04:31N 44°06' E 028°42'2 3.7
2017-Nov-28 04:01N 44°06' E 028°40'0 0.3
2017-Nov-28 03:28N 44°06' E 028°40'0 0.0
2017-Nov-28 02:58N 44°06' E 028°40'0 0.0
2017-Nov-28 02:28N 44°06' E 028°40'0 0.0
2017-Nov-28 01:58N 44°06' E 028°40'0 0.0
2017-Nov-28 01:25N 44°06' E 028°40'0 0.0
2017-Nov-28 00:58N 44°06' E 028°40'0 0.0
2017-Nov-28 00:28N 44°06' E 028°40'0 0.0
2017-Nov-27 23:55N 44°06' E 028°40'0 0.0
2017-Nov-27 23:28N 44°06' E 028°40'0 0.0
2017-Nov-27 22:58N 44°06' E 028°40'0 0.0
2017-Nov-27 22:28N 44°06' E 028°40'0 0.0
2017-Nov-27 21:58N 44°06' E 028°40'0 0.0
2017-Nov-27 21:28N 44°06' E 028°40'0 0.0
2017-Nov-27 20:58N 44°06' E 028°40'0 0.0
2017-Nov-27 20:28N 44°06' E 028°40'0 0.0
2017-Nov-27 19:58N 44°06' E 028°40'0 0.0
2017-Nov-27 19:28N 44°06' E 028°40'0 0.0
2017-Nov-27 18:58N 44°06' E 028°40'0 0.0
2017-Nov-27 18:28N 44°06' E 028°40'0 0.0
2017-Nov-27 17:58N 44°06' E 028°40'0 0.0
2017-Nov-27 17:28N 44°06' E 028°40'0 0.0
2017-Nov-27 16:58N 44°06' E 028°40'0 0.0
2017-Nov-27 16:28N 44°06' E 028°40'0 0.0
2017-Nov-27 15:58N 44°06' E 028°40'0 0.0
2017-Nov-27 15:28N 44°06' E 028°40'0 0.0
2017-Nov-27 14:58N 44°06' E 028°40'0 0.0
2017-Nov-27 14:28N 44°06' E 028°40'0 0.0
2017-Nov-27 13:58N 44°06' E 028°40'0 0.0
2017-Nov-27 13:28N 44°06' E 028°40'0 0.0
2017-Nov-27 12:58N 44°06' E 028°40'0 0.0
2017-Nov-27 12:28N 44°06' E 028°40'0 0.0
2017-Nov-27 11:58N 44°06' E 028°40'0 0.0
2017-Nov-27 11:28N 44°06' E 028°40'0 0.0
2017-Nov-27 10:58N 44°06' E 028°40'0 0.0
2017-Nov-27 10:28N 44°06' E 028°40'0 0.0
2017-Nov-27 09:58N 44°06' E 028°40'0 0.0
2017-Nov-27 09:28N 44°06' E 028°40'0 0.0
2017-Nov-27 08:58N 44°06' E 028°40'0 0.0
2017-Nov-27 08:28N 44°06' E 028°40'0 0.0
2017-Nov-27 07:58N 44°06' E 028°40'0 0.0
2017-Nov-27 07:28N 44°06' E 028°40'0 0.0
2017-Nov-27 06:58N 44°06' E 028°40'0 0.0
2017-Nov-27 06:28N 44°06' E 028°40'0 0.0
2017-Nov-27 05:58N 44°06' E 028°40'0 0.0
2017-Nov-27 05:28N 44°06' E 028°40'0 0.0
2017-Nov-27 04:58N 44°06' E 028°40'0 0.0
2017-Nov-27 04:28N 44°06' E 028°40'0 0.0
2017-Nov-27 03:58N 44°06' E 028°40'0 0.0
2017-Nov-27 03:28N 44°06' E 028°40'0 0.0
2017-Nov-27 02:58N 44°06' E 028°40'0 0.0
2017-Nov-27 02:28N 44°06' E 028°40'0 0.0
2017-Nov-27 01:58N 44°06' E 028°40'0 0.0
2017-Nov-27 01:28N 44°06' E 028°40'0 0.0
2017-Nov-27 00:58N 44°06' E 028°40'0 0.0
2017-Nov-27 00:28N 44°06' E 028°40'0 0.0
2017-Nov-26 23:58N 44°06' E 028°40'0 0.0
2017-Nov-26 23:28N 44°06' E 028°40'0 0.0
2017-Nov-26 22:58N 44°06' E 028°40'0 0.0
2017-Nov-26 22:28N 44°06' E 028°40'0 0.0
2017-Nov-26 21:58N 44°06' E 028°40'0 0.0
2017-Nov-26 21:28N 44°06' E 028°40'0 0.0
2017-Nov-26 20:58N 44°06' E 028°40'0 0.0
2017-Nov-26 20:28N 44°06' E 028°40'0 0.0
2017-Nov-26 19:58N 44°06' E 028°40'0 0.0
2017-Nov-26 19:28N 44°06' E 028°40'0 0.0
2017-Nov-26 18:58N 44°06' E 028°40'0 0.0
2017-Nov-26 18:28N 44°06' E 028°40'0 0.0
2017-Nov-26 17:55N 44°06' E 028°40'0 0.0
2017-Nov-26 17:28N 44°06' E 028°40'0 0.0
2017-Nov-26 16:58N 44°06' E 028°40'0 0.0
2017-Nov-26 16:28N 44°06' E 028°40'0 0.0
2017-Nov-26 15:58N 44°06' E 028°40'0 0.0
2017-Nov-26 15:28N 44°06' E 028°40'0 0.0
2017-Nov-26 14:58N 44°06' E 028°40'0 0.0
2017-Nov-26 14:28N 44°06' E 028°40'0 0.0
2017-Nov-26 13:58N 44°06' E 028°40'0 0.0
2017-Nov-26 13:28N 44°06' E 028°40'0 0.0
2017-Nov-26 12:58N 44°06' E 028°40'0 0.0
2017-Nov-26 12:28N 44°06' E 028°40'0 0.0
2017-Nov-26 12:01N 44°06' E 028°40'0 0.0
2017-Nov-26 11:28N 44°06' E 028°40'0 0.0
2017-Nov-26 10:58N 44°06' E 028°40'0 0.0
2017-Nov-26 10:28N 44°06' E 028°40'0 0.0
2017-Nov-26 09:58N 44°06' E 028°40'0 0.0
2017-Nov-26 09:28N 44°06' E 028°40'0 0.0
2017-Nov-26 08:58N 44°06' E 028°40'0 0.0
2017-Nov-26 08:28N 44°06' E 028°40'0 0.0
2017-Nov-26 08:01N 44°06' E 028°40'0 0.0
2017-Nov-26 07:28N 44°06' E 028°40'0 0.0
2017-Nov-26 06:58N 44°06' E 028°40'0 0.0
2017-Nov-26 06:28N 44°06' E 028°40'0 0.0
2017-Nov-26 06:01N 44°06' E 028°40'0 0.0
2017-Nov-26 05:28N 44°06' E 028°40'0 0.0
2017-Nov-26 04:58N 44°06' E 028°40'0 0.0
2017-Nov-26 04:28N 44°06' E 028°40'0 0.0
2017-Nov-26 03:58N 44°06' E 028°40'0 0.0
2017-Nov-26 03:31N 44°06' E 028°40'0 0.0
2017-Nov-26 02:58N 44°06' E 028°40'0 0.0
2017-Nov-26 02:28N 44°06' E 028°40'0 0.0
2017-Nov-26 02:01N 44°06' E 028°40'0 0.0
2017-Nov-26 01:30N 44°06' E 028°40'0 0.0
2017-Nov-26 00:58N 44°06' E 028°40'0 0.0
2017-Nov-26 00:28N 44°06' E 028°40'0 0.0
2017-Nov-25 23:58N 44°06' E 028°40'0 0.0
2017-Nov-25 23:28N 44°06' E 028°40'0 0.0
2017-Nov-25 22:58N 44°06' E 028°40'0 0.0
2017-Nov-25 22:31N 44°06' E 028°40'0 0.0
2017-Nov-25 22:01N 44°06' E 028°40'0 0.0
2017-Nov-25 21:31N 44°06' E 028°40'0 0.0
2017-Nov-25 20:58N 44°06' E 028°40'0 0.0
2017-Nov-25 20:31N 44°06' E 028°40'0 0.0
2017-Nov-25 20:01N 44°06' E 028°40'0 0.0
2017-Nov-25 19:28N 44°06' E 028°40'0 0.0
2017-Nov-25 18:58N 44°06' E 028°40'0 0.0
2017-Nov-25 18:28N 44°06' E 028°40'0 0.0
2017-Nov-25 18:01N 44°06' E 028°40'0 0.0
2017-Nov-25 17:28N 44°06' E 028°40'0 0.0
2017-Nov-25 17:01N 44°06' E 028°40'0 0.0
2017-Nov-25 16:31N 44°06' E 028°40'0 0.0
2017-Nov-25 16:01N 44°06' E 028°40'0 0.0
2017-Nov-25 15:28N 44°06' E 028°40'0 0.0
2017-Nov-25 15:00N 44°06' E 028°40'0 0.0
2017-Nov-25 14:31N 44°06' E 028°40'0 0.0
2017-Nov-25 13:58N 44°06' E 028°40'0 0.0
2017-Nov-25 13:31N 44°06' E 028°40'0 0.0
2017-Nov-25 13:00N 44°06' E 028°40'0 0.0
2017-Nov-25 12:30N 44°06' E 028°40'0 0.0
2017-Nov-25 12:00N 44°06' E 028°40'0 0.0
2017-Nov-25 11:31N 44°06' E 028°40'0 0.0
2017-Nov-25 11:00N 44°06' E 028°40'0 0.0
2017-Nov-25 10:30N 44°06' E 028°40'0 0.0
2017-Nov-25 10:01N 44°06' E 028°40'0 0.0
2017-Nov-25 09:30N 44°06' E 028°40'0 0.0
2017-Nov-25 09:00N 44°06' E 028°40'0 0.0
2017-Nov-25 08:31N 44°06' E 028°40'0 0.0
2017-Nov-25 08:01N 44°06' E 028°40'0 0.0
2017-Nov-25 07:31N 44°06' E 028°40'0 0.0
2017-Nov-25 07:00N 44°06' E 028°40'0 0.0
2017-Nov-25 06:30N 44°06' E 028°40'0 0.0
2017-Nov-25 06:00N 44°06' E 028°40'0 0.0
2017-Nov-25 05:31N 44°06' E 028°40'0 0.0
2017-Nov-25 05:00N 44°06' E 028°40'0 0.0
2017-Nov-25 04:30N 44°06' E 028°40'0 0.0
2017-Nov-25 04:00N 44°06' E 028°40'0 0.0
2017-Nov-25 03:30N 44°06' E 028°40'0 0.0
2017-Nov-25 03:00N 44°06' E 028°40'0 0.0
2017-Nov-25 02:30N 44°06' E 028°40'0 0.0
2017-Nov-25 02:00N 44°06' E 028°40'0 0.0
2017-Nov-25 01:30N 44°06' E 028°40'0 0.0
2017-Nov-25 01:00N 44°06' E 028°40'0 0.0
2017-Nov-25 00:30N 44°06' E 028°40'0 0.0
2017-Nov-25 00:00N 44°06' E 028°40'0 0.0
2017-Nov-24 23:30N 44°06' E 028°40'0 0.0
2017-Nov-24 23:00N 44°06' E 028°40'0 0.0
2017-Nov-24 22:30N 44°06' E 028°40'0 0.0
2017-Nov-24 22:00N 44°06' E 028°40'0 0.0
2017-Nov-24 21:31N 44°06' E 028°40'0 0.0
2017-Nov-24 21:01N 44°06' E 028°40'0 0.0
2017-Nov-24 20:30N 44°06' E 028°40'0 0.0
2017-Nov-24 20:00N 44°06' E 028°40'0 0.0
2017-Nov-24 19:30N 44°06' E 028°40'0 0.0
2017-Nov-24 19:00N 44°06' E 028°40'0 0.0
2017-Nov-24 18:30N 44°06' E 028°40'0 0.0
2017-Nov-24 18:00N 44°06' E 028°40'0 0.0
2017-Nov-24 17:30N 44°06' E 028°40'0 0.0
2017-Nov-24 17:00N 44°06' E 028°40'0 0.0
2017-Nov-24 16:30N 44°06' E 028°40'0 0.0
2017-Nov-24 16:00N 44°06' E 028°40'0 0.0
2017-Nov-24 15:30N 44°06' E 028°40'0 0.0
2017-Nov-24 15:00N 44°06' E 028°40'0 0.0
2017-Nov-24 14:30N 44°06' E 028°40'0 0.0
2017-Nov-24 14:00N 44°06' E 028°40'0 0.0
2017-Nov-24 13:30N 44°06' E 028°40'0 0.0
2017-Nov-24 13:00N 44°06' E 028°40'0 0.0
2017-Nov-24 12:30N 44°06' E 028°40'0 0.0
2017-Nov-24 12:00N 44°06' E 028°40'0 0.0
2017-Nov-24 11:30N 44°06' E 028°40'0 0.0
2017-Nov-24 11:00N 44°06' E 028°40'0 0.0
2017-Nov-24 10:30N 44°06' E 028°40'0 0.0
2017-Nov-24 10:00N 44°06' E 028°40'0 0.0
2017-Nov-24 09:30N 44°06' E 028°40'0 0.0
2017-Nov-24 09:00N 44°06' E 028°40'0 0.0
2017-Nov-24 08:30N 44°06' E 028°40'0 0.0
2017-Nov-24 08:00N 44°06' E 028°40'0 0.0
2017-Nov-24 07:30N 44°06' E 028°40'0 0.0
2017-Nov-24 07:00N 44°06' E 028°40'0 0.0
2017-Nov-24 06:30N 44°06' E 028°40'0 0.0
2017-Nov-24 06:00N 44°06' E 028°40'0 0.0
2017-Nov-24 05:30N 44°06' E 028°40'0 0.0
2017-Nov-24 05:00N 44°06' E 028°40'0 0.0
2017-Nov-24 04:30N 44°06' E 028°40'0 0.0
2017-Nov-24 04:00N 44°06' E 028°40'0 0.0
2017-Nov-24 03:30N 44°06' E 028°40'0 0.0
2017-Nov-24 03:00N 44°06' E 028°40'0 0.0
2017-Nov-24 02:30N 44°06' E 028°40'0 0.0
2017-Nov-24 02:00N 44°06' E 028°40'0 0.0
2017-Nov-24 01:30N 44°06' E 028°40'0 0.0
2017-Nov-24 01:00N 44°06' E 028°40'0 0.0
2017-Nov-24 00:30N 44°06' E 028°40'0 0.0
2017-Nov-24 00:00N 44°06' E 028°40'0 0.0
2017-Nov-23 23:30N 44°06' E 028°40'0 0.0
2017-Nov-23 23:00N 44°06' E 028°40'0 0.0
2017-Nov-23 22:30N 44°06' E 028°40'0 0.0
2017-Nov-23 22:00N 44°06' E 028°40'0 0.0
2017-Nov-23 21:30N 44°06' E 028°40'0 0.0
2017-Nov-23 21:00N 44°06' E 028°40'0 0.0
2017-Nov-23 20:30N 44°06' E 028°40'0 0.0
2017-Nov-23 20:00N 44°06' E 028°40'0 0.0
2017-Nov-23 19:30N 44°06' E 028°40'0 0.0
2017-Nov-23 19:00N 44°06' E 028°40'0 0.0
2017-Nov-23 18:27N 44°06' E 028°40'0 0.0
2017-Nov-23 18:00N 44°06' E 028°40'0 0.0
2017-Nov-23 17:30N 44°06' E 028°40'0 0.0
2017-Nov-23 17:00N 44°06' E 028°40'0 0.0
2017-Nov-23 16:30N 44°06' E 028°40'0 0.0
2017-Nov-23 16:00N 44°06' E 028°40'0 0.0
2017-Nov-23 15:30N 44°06' E 028°40'0 0.0
2017-Nov-23 15:00N 44°06' E 028°40'0 0.0
2017-Nov-23 14:24N 44°06' E 028°40'0 0.0
2017-Nov-23 14:00N 44°06' E 028°40'0 0.0
2017-Nov-23 13:30N 44°06' E 028°40'0 0.0
2017-Nov-23 13:00N 44°06' E 028°40'0 0.0
2017-Nov-23 12:30N 44°06' E 028°40'0 0.0
2017-Nov-23 12:00N 44°06' E 028°40'0 0.0
2017-Nov-23 11:30N 44°06' E 028°40'0 0.0
2017-Nov-23 11:00N 44°06' E 028°40'0 0.0
2017-Nov-23 10:30N 44°06' E 028°40'0 0.0
2017-Nov-23 10:00N 44°06' E 028°40'0 0.0
2017-Nov-23 09:30N 44°06' E 028°40'0 0.0
2017-Nov-23 09:00N 44°06' E 028°40'0 0.0
2017-Nov-23 08:30N 44°06' E 028°40'0 0.0
2017-Nov-23 08:00N 44°06' E 028°40'0 0.0
2017-Nov-23 07:30N 44°06' E 028°40'0 0.0
2017-Nov-23 07:00N 44°06' E 028°40'0 0.0
2017-Nov-23 06:30N 44°06' E 028°40'0 0.0
2017-Nov-23 06:00N 44°06' E 028°40'0 0.0
2017-Nov-23 05:30N 44°06' E 028°40'0 0.0
2017-Nov-23 05:00N 44°06' E 028°40'0 0.0
2017-Nov-23 04:30N 44°06' E 028°40'0 0.0
2017-Nov-23 04:00N 44°06' E 028°40'0 0.0
2017-Nov-23 03:30N 44°06' E 028°40'0 0.0
2017-Nov-23 03:00N 44°06' E 028°40'0 0.0
2017-Nov-23 02:30N 44°06' E 028°40'  

Dump ship's entire track history